sensor_id;sensor_type;location;lat;lon;timestamp;P1;durP1;ratioP1;P2;durP2;ratioP2
71148;SDS011;59072;42.144;25.200;2024-03-29T00:01:45;32.35;;;8.73;;
71148;SDS011;59072;42.144;25.200;2024-03-29T00:04:10;26.73;;;7.97;;
71148;SDS011;59072;42.144;25.200;2024-03-29T00:06:36;30.85;;;8.77;;
71148;SDS011;59072;42.144;25.200;2024-03-29T00:09:01;35.50;;;8.98;;
71148;SDS011;59072;42.144;25.200;2024-03-29T00:11:26;26.05;;;7.80;;
71148;SDS011;59072;42.144;25.200;2024-03-29T00:13:52;40.75;;;8.25;;
71148;SDS011;59072;42.144;25.200;2024-03-29T00:16:18;32.47;;;8.23;;
71148;SDS011;59072;42.144;25.200;2024-03-29T00:18:43;27.13;;;8.27;;
71148;SDS011;59072;42.144;25.200;2024-03-29T00:21:09;28.58;;;7.75;;
71148;SDS011;59072;42.144;25.200;2024-03-29T00:23:34;30.75;;;9.05;;
71148;SDS011;59072;42.144;25.200;2024-03-29T00:25:59;31.45;;;8.23;;
71148;SDS011;59072;42.144;25.200;2024-03-29T00:28:25;24.00;;;7.93;;
71148;SDS011;59072;42.144;25.200;2024-03-29T00:30:50;26.15;;;7.97;;
71148;SDS011;59072;42.144;25.200;2024-03-29T00:33:16;24.92;;;7.65;;
71148;SDS011;59072;42.144;25.200;2024-03-29T00:35:41;18.98;;;6.82;;
71148;SDS011;59072;42.144;25.200;2024-03-29T00:38:06;25.40;;;8.02;;
71148;SDS011;59072;42.144;25.200;2024-03-29T00:40:32;27.15;;;7.32;;
71148;SDS011;59072;42.144;25.200;2024-03-29T00:42:57;23.65;;;7.22;;
71148;SDS011;59072;42.144;25.200;2024-03-29T00:45:22;32.22;;;7.95;;
71148;SDS011;59072;42.144;25.200;2024-03-29T00:47:48;20.33;;;7.43;;
71148;SDS011;59072;42.144;25.200;2024-03-29T00:50:13;24.88;;;8.23;;
71148;SDS011;59072;42.144;25.200;2024-03-29T00:52:39;23.67;;;7.97;;
71148;SDS011;59072;42.144;25.200;2024-03-29T00:55:04;23.52;;;7.57;;
71148;SDS011;59072;42.144;25.200;2024-03-29T00:57:30;26.98;;;8.23;;
71148;SDS011;59072;42.144;25.200;2024-03-29T00:59:55;26.85;;;7.80;;
71148;SDS011;59072;42.144;25.200;2024-03-29T01:02:24;27.20;;;7.95;;
71148;SDS011;59072;42.144;25.200;2024-03-29T01:04:49;23.42;;;8.15;;
71148;SDS011;59072;42.144;25.200;2024-03-29T01:07:15;26.80;;;8.45;;
71148;SDS011;59072;42.144;25.200;2024-03-29T01:09:42;28.02;;;7.88;;
71148;SDS011;59072;42.144;25.200;2024-03-29T01:12:08;37.97;;;9.45;;
71148;SDS011;59072;42.144;25.200;2024-03-29T01:14:34;27.15;;;8.90;;
71148;SDS011;59072;42.144;25.200;2024-03-29T01:16:59;32.53;;;9.25;;
71148;SDS011;59072;42.144;25.200;2024-03-29T01:19:25;26.35;;;9.13;;
71148;SDS011;59072;42.144;25.200;2024-03-29T01:21:50;27.70;;;8.77;;
71148;SDS011;59072;42.144;25.200;2024-03-29T01:24:15;27.90;;;8.93;;
71148;SDS011;59072;42.144;25.200;2024-03-29T01:26:41;28.38;;;8.77;;
71148;SDS011;59072;42.144;25.200;2024-03-29T01:29:06;25.58;;;8.80;;
71148;SDS011;59072;42.144;25.200;2024-03-29T01:31:32;29.50;;;9.30;;
71148;SDS011;59072;42.144;25.200;2024-03-29T01:33:57;35.95;;;10.27;;
71148;SDS011;59072;42.144;25.200;2024-03-29T01:36:24;31.73;;;10.27;;
71148;SDS011;59072;42.144;25.200;2024-03-29T01:38:50;33.28;;;9.65;;
71148;SDS011;59072;42.144;25.200;2024-03-29T01:41:19;24.63;;;11.48;;
71148;SDS011;59072;42.144;25.200;2024-03-29T01:43:44;28.48;;;12.18;;
71148;SDS011;59072;42.144;25.200;2024-03-29T01:46:10;29.67;;;9.68;;
71148;SDS011;59072;42.144;25.200;2024-03-29T01:48:35;29.55;;;11.50;;
71148;SDS011;59072;42.144;25.200;2024-03-29T01:51:01;24.10;;;7.72;;
71148;SDS011;59072;42.144;25.200;2024-03-29T01:53:27;22.95;;;8.80;;
71148;SDS011;59072;42.144;25.200;2024-03-29T01:55:53;30.70;;;8.32;;
71148;SDS011;59072;42.144;25.200;2024-03-29T01:58:19;27.20;;;7.38;;
71148;SDS011;59072;42.144;25.200;2024-03-29T02:00:58;28.73;;;8.23;;
71148;SDS011;59072;42.144;25.200;2024-03-29T02:03:24;24.17;;;8.15;;
71148;SDS011;59072;42.144;25.200;2024-03-29T02:05:50;22.40;;;8.00;;
71148;SDS011;59072;42.144;25.200;2024-03-29T02:08:16;26.30;;;8.05;;
71148;SDS011;59072;42.144;25.200;2024-03-29T02:10:42;24.60;;;7.95;;
71148;SDS011;59072;42.144;25.200;2024-03-29T02:13:08;20.73;;;7.68;;
71148;SDS011;59072;42.144;25.200;2024-03-29T02:15:34;30.15;;;9.73;;
71148;SDS011;59072;42.144;25.200;2024-03-29T02:17:59;24.83;;;7.18;;
71148;SDS011;59072;42.144;25.200;2024-03-29T02:20:25;21.42;;;7.47;;
71148;SDS011;59072;42.144;25.200;2024-03-29T02:22:53;22.73;;;8.20;;
71148;SDS011;59072;42.144;25.200;2024-03-29T02:25:20;21.20;;;7.63;;
71148;SDS011;59072;42.144;25.200;2024-03-29T02:27:46;24.58;;;6.75;;
71148;SDS011;59072;42.144;25.200;2024-03-29T02:30:15;18.92;;;6.70;;
71148;SDS011;59072;42.144;25.200;2024-03-29T02:32:41;24.20;;;7.00;;
71148;SDS011;59072;42.144;25.200;2024-03-29T02:35:07;24.70;;;7.43;;
71148;SDS011;59072;42.144;25.200;2024-03-29T02:37:33;25.63;;;7.82;;
71148;SDS011;59072;42.144;25.200;2024-03-29T02:40:02;21.50;;;6.53;;
71148;SDS011;59072;42.144;25.200;2024-03-29T02:42:28;33.42;;;8.68;;
71148;SDS011;59072;42.144;25.200;2024-03-29T02:44:54;17.00;;;6.07;;
71148;SDS011;59072;42.144;25.200;2024-03-29T02:47:20;21.85;;;7.20;;
71148;SDS011;59072;42.144;25.200;2024-03-29T02:49:46;17.35;;;5.38;;
71148;SDS011;59072;42.144;25.200;2024-03-29T02:52:12;18.63;;;6.78;;
71148;SDS011;59072;42.144;25.200;2024-03-29T02:54:37;14.13;;;5.32;;
71148;SDS011;59072;42.144;25.200;2024-03-29T02:57:02;18.50;;;7.38;;
71148;SDS011;59072;42.144;25.200;2024-03-29T02:59:28;22.30;;;7.93;;
71148;SDS011;59072;42.144;25.200;2024-03-29T03:01:53;20.85;;;6.65;;
71148;SDS011;59072;42.144;25.200;2024-03-29T03:04:19;19.33;;;7.03;;
71148;SDS011;59072;42.144;25.200;2024-03-29T03:06:44;20.67;;;7.72;;
71148;SDS011;59072;42.144;25.200;2024-03-29T03:09:09;22.42;;;6.78;;
71148;SDS011;59072;42.144;25.200;2024-03-29T03:11:53;23.48;;;8.35;;
71148;SDS011;59072;42.144;25.200;2024-03-29T03:14:19;25.10;;;6.78;;
71148;SDS011;59072;42.144;25.200;2024-03-29T03:16:44;22.90;;;7.45;;
71148;SDS011;59072;42.144;25.200;2024-03-29T03:19:09;22.52;;;6.93;;
71148;SDS011;59072;42.144;25.200;2024-03-29T03:21:35;21.95;;;7.22;;
71148;SDS011;59072;42.144;25.200;2024-03-29T03:24:00;22.17;;;6.50;;
71148;SDS011;59072;42.144;25.200;2024-03-29T03:26:26;26.65;;;7.00;;
71148;SDS011;59072;42.144;25.200;2024-03-29T03:28:51;22.33;;;7.07;;
71148;SDS011;59072;42.144;25.200;2024-03-29T03:31:17;23.85;;;6.63;;
71148;SDS011;59072;42.144;25.200;2024-03-29T03:33:43;17.67;;;7.55;;
71148;SDS011;59072;42.144;25.200;2024-03-29T03:36:08;24.25;;;6.18;;
71148;SDS011;59072;42.144;25.200;2024-03-29T03:38:33;21.90;;;6.60;;
71148;SDS011;59072;42.144;25.200;2024-03-29T03:41:01;21.95;;;6.07;;
71148;SDS011;59072;42.144;25.200;2024-03-29T03:43:27;23.80;;;7.28;;
71148;SDS011;59072;42.144;25.200;2024-03-29T03:45:52;23.77;;;5.75;;
71148;SDS011;59072;42.144;25.200;2024-03-29T03:48:18;22.90;;;5.93;;
71148;SDS011;59072;42.144;25.200;2024-03-29T03:50:44;19.83;;;6.43;;
71148;SDS011;59072;42.144;25.200;2024-03-29T03:53:09;18.77;;;5.43;;
71148;SDS011;59072;42.144;25.200;2024-03-29T03:55:35;16.30;;;5.50;;
71148;SDS011;59072;42.144;25.200;2024-03-29T03:58:03;23.42;;;6.88;;
71148;SDS011;59072;42.144;25.200;2024-03-29T04:00:29;17.83;;;6.53;;
71148;SDS011;59072;42.144;25.200;2024-03-29T04:02:54;23.98;;;7.25;;
71148;SDS011;59072;42.144;25.200;2024-03-29T04:05:21;19.92;;;6.43;;
71148;SDS011;59072;42.144;25.200;2024-03-29T04:07:47;20.83;;;5.38;;
71148;SDS011;59072;42.144;25.200;2024-03-29T04:10:13;22.35;;;6.35;;
71148;SDS011;59072;42.144;25.200;2024-03-29T04:12:38;24.92;;;7.53;;
71148;SDS011;59072;42.144;25.200;2024-03-29T04:15:04;26.55;;;7.50;;
71148;SDS011;59072;42.144;25.200;2024-03-29T04:17:31;23.48;;;5.88;;
71148;SDS011;59072;42.144;25.200;2024-03-29T04:19:57;21.65;;;6.53;;
71148;SDS011;59072;42.144;25.200;2024-03-29T04:22:23;20.95;;;7.95;;
71148;SDS011;59072;42.144;25.200;2024-03-29T04:24:48;18.33;;;7.07;;
71148;SDS011;59072;42.144;25.200;2024-03-29T04:27:14;18.02;;;5.90;;
71148;SDS011;59072;42.144;25.200;2024-03-29T04:29:39;18.08;;;6.07;;
71148;SDS011;59072;42.144;25.200;2024-03-29T04:32:05;21.65;;;7.07;;
71148;SDS011;59072;42.144;25.200;2024-03-29T04:34:31;22.92;;;6.40;;
71148;SDS011;59072;42.144;25.200;2024-03-29T04:36:56;27.40;;;6.82;;
71148;SDS011;59072;42.144;25.200;2024-03-29T04:39:22;19.80;;;6.60;;
71148;SDS011;59072;42.144;25.200;2024-03-29T04:41:47;19.65;;;7.05;;
71148;SDS011;59072;42.144;25.200;2024-03-29T04:44:13;14.20;;;5.55;;
71148;SDS011;59072;42.144;25.200;2024-03-29T04:46:39;20.88;;;6.35;;
71148;SDS011;59072;42.144;25.200;2024-03-29T04:49:04;20.20;;;6.32;;
71148;SDS011;59072;42.144;25.200;2024-03-29T04:51:29;21.48;;;6.38;;
71148;SDS011;59072;42.144;25.200;2024-03-29T04:53:55;23.80;;;7.90;;
71148;SDS011;59072;42.144;25.200;2024-03-29T04:56:20;16.58;;;5.75;;
71148;SDS011;59072;42.144;25.200;2024-03-29T04:58:46;20.08;;;6.88;;
71148;SDS011;59072;42.144;25.200;2024-03-29T05:01:11;19.70;;;5.88;;
71148;SDS011;59072;42.144;25.200;2024-03-29T05:03:37;16.08;;;7.68;;
71148;SDS011;59072;42.144;25.200;2024-03-29T05:06:02;41.38;;;31.75;;
71148;SDS011;59072;42.144;25.200;2024-03-29T05:08:28;23.75;;;14.77;;
71148;SDS011;59072;42.144;25.200;2024-03-29T05:10:53;15.25;;;5.63;;
71148;SDS011;59072;42.144;25.200;2024-03-29T05:13:18;13.07;;;4.78;;
71148;SDS011;59072;42.144;25.200;2024-03-29T05:15:45;12.85;;;4.32;;
71148;SDS011;59072;42.144;25.200;2024-03-29T05:18:11;10.77;;;4.35;;
71148;SDS011;59072;42.144;25.200;2024-03-29T05:20:36;17.95;;;5.95;;
71148;SDS011;59072;42.144;25.200;2024-03-29T05:23:02;10.90;;;4.05;;
71148;SDS011;59072;42.144;25.200;2024-03-29T05:25:27;15.07;;;4.47;;
71148;SDS011;59072;42.144;25.200;2024-03-29T05:27:53;10.93;;;4.00;;
71148;SDS011;59072;42.144;25.200;2024-03-29T05:30:18;13.27;;;4.35;;
71148;SDS011;59072;42.144;25.200;2024-03-29T05:32:44;12.57;;;4.85;;
71148;SDS011;59072;42.144;25.200;2024-03-29T05:35:09;10.15;;;4.03;;
71148;SDS011;59072;42.144;25.200;2024-03-29T05:37:35;11.30;;;4.63;;
71148;SDS011;59072;42.144;25.200;2024-03-29T05:40:01;10.50;;;3.90;;
71148;SDS011;59072;42.144;25.200;2024-03-29T05:42:30;7.18;;;3.30;;
71148;SDS011;59072;42.144;25.200;2024-03-29T05:44:56;7.05;;;2.70;;
71148;SDS011;59072;42.144;25.200;2024-03-29T05:47:22;11.02;;;4.53;;
71148;SDS011;59072;42.144;25.200;2024-03-29T05:49:47;6.03;;;2.72;;
71148;SDS011;59072;42.144;25.200;2024-03-29T05:52:13;9.23;;;3.05;;
71148;SDS011;59072;42.144;25.200;2024-03-29T05:54:43;6.43;;;2.30;;
71148;SDS011;59072;42.144;25.200;2024-03-29T05:57:09;8.70;;;2.90;;
71148;SDS011;59072;42.144;25.200;2024-03-29T05:59:34;8.45;;;2.63;;
71148;SDS011;59072;42.144;25.200;2024-03-29T06:02:01;7.47;;;3.00;;
71148;SDS011;59072;42.144;25.200;2024-03-29T06:04:26;8.93;;;2.75;;
71148;SDS011;59072;42.144;25.200;2024-03-29T06:06:58;6.88;;;2.13;;
71148;SDS011;59072;42.144;25.200;2024-03-29T06:09:30;5.85;;;2.17;;
71148;SDS011;59072;42.144;25.200;2024-03-29T06:11:58;7.57;;;2.00;;
71148;SDS011;59072;42.144;25.200;2024-03-29T06:14:24;6.28;;;1.88;;
71148;SDS011;59072;42.144;25.200;2024-03-29T06:17:08;10.05;;;2.30;;
71148;SDS011;59072;42.144;25.200;2024-03-29T06:19:51;4.85;;;2.00;;
71148;SDS011;59072;42.144;25.200;2024-03-29T06:22:21;9.00;;;2.35;;
71148;SDS011;59072;42.144;25.200;2024-03-29T06:24:50;5.05;;;1.80;;
71148;SDS011;59072;42.144;25.200;2024-03-29T06:27:18;7.25;;;1.83;;
71148;SDS011;59072;42.144;25.200;2024-03-29T06:29:47;9.30;;;3.40;;
71148;SDS011;59072;42.144;25.200;2024-03-29T06:32:13;5.85;;;2.38;;
71148;SDS011;59072;42.144;25.200;2024-03-29T06:34:39;7.55;;;2.47;;
71148;SDS011;59072;42.144;25.200;2024-03-29T06:37:04;6.90;;;2.05;;
71148;SDS011;59072;42.144;25.200;2024-03-29T06:39:30;5.28;;;1.88;;
71148;SDS011;59072;42.144;25.200;2024-03-29T06:41:55;8.35;;;2.10;;
71148;SDS011;59072;42.144;25.200;2024-03-29T06:44:21;5.25;;;1.75;;
71148;SDS011;59072;42.144;25.200;2024-03-29T06:46:46;8.18;;;1.98;;
71148;SDS011;59072;42.144;25.200;2024-03-29T06:49:12;9.02;;;2.00;;
71148;SDS011;59072;42.144;25.200;2024-03-29T06:51:38;6.50;;;2.10;;
71148;SDS011;59072;42.144;25.200;2024-03-29T06:54:05;7.35;;;1.80;;
71148;SDS011;59072;42.144;25.200;2024-03-29T06:56:31;6.47;;;2.10;;
71148;SDS011;59072;42.144;25.200;2024-03-29T06:58:56;7.07;;;1.98;;
71148;SDS011;59072;42.144;25.200;2024-03-29T07:01:22;5.00;;;2.10;;
71148;SDS011;59072;42.144;25.200;2024-03-29T07:03:47;5.68;;;1.83;;
71148;SDS011;59072;42.144;25.200;2024-03-29T07:06:13;5.78;;;1.60;;
71148;SDS011;59072;42.144;25.200;2024-03-29T07:08:38;7.70;;;1.90;;
71148;SDS011;59072;42.144;25.200;2024-03-29T07:11:04;8.70;;;1.95;;
71148;SDS011;59072;42.144;25.200;2024-03-29T07:13:29;6.57;;;2.25;;
71148;SDS011;59072;42.144;25.200;2024-03-29T07:15:58;8.77;;;2.40;;
71148;SDS011;59072;42.144;25.200;2024-03-29T07:18:24;9.02;;;3.65;;
71148;SDS011;59072;42.144;25.200;2024-03-29T07:20:50;9.15;;;2.83;;
71148;SDS011;59072;42.144;25.200;2024-03-29T07:23:16;6.53;;;2.20;;
71148;SDS011;59072;42.144;25.200;2024-03-29T07:25:43;11.75;;;2.40;;
71148;SDS011;59072;42.144;25.200;2024-03-29T07:28:10;6.97;;;1.70;;
71148;SDS011;59072;42.144;25.200;2024-03-29T07:30:35;6.57;;;2.00;;
71148;SDS011;59072;42.144;25.200;2024-03-29T07:33:03;4.22;;;1.63;;
71148;SDS011;59072;42.144;25.200;2024-03-29T07:35:29;5.65;;;1.95;;
71148;SDS011;59072;42.144;25.200;2024-03-29T07:37:55;6.75;;;1.80;;
71148;SDS011;59072;42.144;25.200;2024-03-29T07:40:21;6.85;;;1.70;;
71148;SDS011;59072;42.144;25.200;2024-03-29T07:42:47;9.00;;;1.80;;
71148;SDS011;59072;42.144;25.200;2024-03-29T07:45:12;7.63;;;2.38;;
71148;SDS011;59072;42.144;25.200;2024-03-29T07:47:38;8.05;;;2.42;;
71148;SDS011;59072;42.144;25.200;2024-03-29T07:50:04;7.07;;;2.22;;
71148;SDS011;59072;42.144;25.200;2024-03-29T07:52:31;5.10;;;1.50;;
71148;SDS011;59072;42.144;25.200;2024-03-29T07:54:57;6.75;;;1.80;;
71148;SDS011;59072;42.144;25.200;2024-03-29T07:57:22;4.18;;;1.50;;
71148;SDS011;59072;42.144;25.200;2024-03-29T07:59:50;4.40;;;1.50;;
71148;SDS011;59072;42.144;25.200;2024-03-29T08:02:15;8.40;;;2.85;;
71148;SDS011;59072;42.144;25.200;2024-03-29T08:04:41;7.28;;;1.85;;
71148;SDS011;59072;42.144;25.200;2024-03-29T08:07:08;4.20;;;1.52;;
71148;SDS011;59072;42.144;25.200;2024-03-29T08:09:33;9.55;;;3.38;;
71148;SDS011;59072;42.144;25.200;2024-03-29T08:11:59;6.15;;;1.63;;
71148;SDS011;59072;42.144;25.200;2024-03-29T08:14:24;6.28;;;1.75;;
71148;SDS011;59072;42.144;25.200;2024-03-29T08:19:18;6.15;;;2.25;;
71148;SDS011;59072;42.144;25.200;2024-03-29T08:21:43;6.00;;;1.30;;
71148;SDS011;59072;42.144;25.200;2024-03-29T08:24:08;4.72;;;1.33;;
71148;SDS011;59072;42.144;25.200;2024-03-29T08:26:34;6.88;;;1.48;;
71148;SDS011;59072;42.144;25.200;2024-03-29T08:28:59;4.80;;;1.13;;
71148;SDS011;59072;42.144;25.200;2024-03-29T08:31:25;5.50;;;1.00;;
71148;SDS011;59072;42.144;25.200;2024-03-29T08:33:50;7.32;;;2.72;;
71148;SDS011;59072;42.144;25.200;2024-03-29T08:36:17;9.95;;;3.00;;
71148;SDS011;59072;42.144;25.200;2024-03-29T08:38:42;10.25;;;2.20;;
71148;SDS011;59072;42.144;25.200;2024-03-29T08:41:10;5.32;;;1.75;;
71148;SDS011;59072;42.144;25.200;2024-03-29T08:43:35;4.78;;;1.40;;
71148;SDS011;59072;42.144;25.200;2024-03-29T08:46:01;8.65;;;2.25;;
71148;SDS011;59072;42.144;25.200;2024-03-29T08:48:26;9.40;;;3.10;;
71148;SDS011;59072;42.144;25.200;2024-03-29T08:50:52;9.07;;;3.20;;
71148;SDS011;59072;42.144;25.200;2024-03-29T08:53:17;6.18;;;2.45;;
71148;SDS011;59072;42.144;25.200;2024-03-29T08:55:45;10.48;;;2.55;;
71148;SDS011;59072;42.144;25.200;2024-03-29T08:58:13;12.43;;;4.55;;
71148;SDS011;59072;42.144;25.200;2024-03-29T09:00:39;8.90;;;2.92;;
71148;SDS011;59072;42.144;25.200;2024-03-29T09:03:04;9.60;;;3.05;;
71148;SDS011;59072;42.144;25.200;2024-03-29T09:05:29;20.73;;;9.35;;
71148;SDS011;59072;42.144;25.200;2024-03-29T09:07:55;41.30;;;21.50;;
71148;SDS011;59072;42.144;25.200;2024-03-29T09:10:24;62.83;;;30.70;;
71148;SDS011;59072;42.144;25.200;2024-03-29T09:12:51;29.10;;;12.63;;
71148;SDS011;59072;42.144;25.200;2024-03-29T09:15:17;33.67;;;16.20;;
71148;SDS011;59072;42.144;25.200;2024-03-29T09:17:43;28.95;;;12.85;;
71148;SDS011;59072;42.144;25.200;2024-03-29T09:20:10;21.50;;;8.45;;
71148;SDS011;59072;42.144;25.200;2024-03-29T09:22:36;24.70;;;11.48;;
71148;SDS011;59072;42.144;25.200;2024-03-29T09:25:03;20.05;;;8.77;;
71148;SDS011;59072;42.144;25.200;2024-03-29T09:29:55;13.85;;;5.50;;
71148;SDS011;59072;42.144;25.200;2024-03-29T09:32:23;10.60;;;4.00;;
71148;SDS011;59072;42.144;25.200;2024-03-29T09:34:48;11.13;;;4.32;;
71148;SDS011;59072;42.144;25.200;2024-03-29T09:37:14;11.20;;;5.47;;
71148;SDS011;59072;42.144;25.200;2024-03-29T09:39:40;8.32;;;3.05;;
71148;SDS011;59072;42.144;25.200;2024-03-29T09:42:06;12.35;;;3.58;;
71148;SDS011;59072;42.144;25.200;2024-03-29T09:44:32;9.68;;;3.95;;
71148;SDS011;59072;42.144;25.200;2024-03-29T09:47:02;7.38;;;2.40;;
71148;SDS011;59072;42.144;25.200;2024-03-29T09:49:30;10.23;;;2.85;;
71148;SDS011;59072;42.144;25.200;2024-03-29T09:51:56;10.50;;;3.40;;
71148;SDS011;59072;42.144;25.200;2024-03-29T09:54:29;9.20;;;3.53;;
71148;SDS011;59072;42.144;25.200;2024-03-29T09:56:57;14.02;;;4.78;;
71148;SDS011;59072;42.144;25.200;2024-03-29T09:59:23;11.35;;;4.18;;
71148;SDS011;59072;42.144;25.200;2024-03-29T10:01:51;10.50;;;4.95;;
71148;SDS011;59072;42.144;25.200;2024-03-29T10:04:18;11.45;;;3.50;;
71148;SDS011;59072;42.144;25.200;2024-03-29T10:06:46;8.95;;;2.55;;
71148;SDS011;59072;42.144;25.200;2024-03-29T10:09:17;7.82;;;1.98;;
71148;SDS011;59072;42.144;25.200;2024-03-29T10:11:43;5.93;;;1.77;;
71148;SDS011;59072;42.144;25.200;2024-03-29T10:14:09;5.38;;;1.73;;
71148;SDS011;59072;42.144;25.200;2024-03-29T10:16:35;7.60;;;2.15;;
71148;SDS011;59072;42.144;25.200;2024-03-29T10:19:00;4.90;;;1.50;;
71148;SDS011;59072;42.144;25.200;2024-03-29T10:21:27;4.85;;;1.80;;
71148;SDS011;59072;42.144;25.200;2024-03-29T10:23:52;5.50;;;1.92;;
71148;SDS011;59072;42.144;25.200;2024-03-29T10:26:18;4.75;;;1.42;;
71148;SDS011;59072;42.144;25.200;2024-03-29T10:28:46;5.38;;;1.50;;
71148;SDS011;59072;42.144;25.200;2024-03-29T10:31:12;7.95;;;2.30;;
71148;SDS011;59072;42.144;25.200;2024-03-29T10:33:39;7.50;;;2.53;;
71148;SDS011;59072;42.144;25.200;2024-03-29T10:36:08;6.38;;;2.25;;
71148;SDS011;59072;42.144;25.200;2024-03-29T10:38:37;10.43;;;3.63;;
71148;SDS011;59072;42.144;25.200;2024-03-29T10:41:03;8.77;;;3.20;;
71148;SDS011;59072;42.144;25.200;2024-03-29T10:43:31;6.53;;;1.90;;
71148;SDS011;59072;42.144;25.200;2024-03-29T10:45:57;4.07;;;1.52;;
71148;SDS011;59072;42.144;25.200;2024-03-29T10:48:25;7.47;;;2.65;;
71148;SDS011;59072;42.144;25.200;2024-03-29T10:50:53;3.00;;;0.95;;
71148;SDS011;59072;42.144;25.200;2024-03-29T10:53:20;5.57;;;1.60;;
71148;SDS011;59072;42.144;25.200;2024-03-29T10:55:47;6.18;;;1.55;;
71148;SDS011;59072;42.144;25.200;2024-03-29T10:58:15;4.80;;;1.40;;
71148;SDS011;59072;42.144;25.200;2024-03-29T11:00:47;5.78;;;1.55;;
71148;SDS011;59072;42.144;25.200;2024-03-29T11:03:20;4.47;;;1.33;;
71148;SDS011;59072;42.144;25.200;2024-03-29T11:06:02;4.28;;;1.27;;
71148;SDS011;59072;42.144;25.200;2024-03-29T11:10:59;5.95;;;1.50;;
71148;SDS011;59072;42.144;25.200;2024-03-29T11:15:58;4.30;;;1.17;;
71148;SDS011;59072;42.144;25.200;2024-03-29T11:18:25;2.83;;;1.27;;
71148;SDS011;59072;42.144;25.200;2024-03-29T11:20:52;2.78;;;0.90;;
71148;SDS011;59072;42.144;25.200;2024-03-29T11:23:19;3.17;;;0.80;;
71148;SDS011;59072;42.144;25.200;2024-03-29T11:25:48;3.03;;;1.05;;
71148;SDS011;59072;42.144;25.200;2024-03-29T11:28:22;2.78;;;0.82;;
71148;SDS011;59072;42.144;25.200;2024-03-29T11:30:50;3.83;;;0.90;;
71148;SDS011;59072;42.144;25.200;2024-03-29T11:33:27;3.72;;;1.27;;
71148;SDS011;59072;42.144;25.200;2024-03-29T11:38:41;6.38;;;1.40;;
71148;SDS011;59072;42.144;25.200;2024-03-29T11:41:11;5.28;;;1.13;;
71148;SDS011;59072;42.144;25.200;2024-03-29T11:43:39;3.97;;;1.10;;
71148;SDS011;59072;42.144;25.200;2024-03-29T11:46:06;4.45;;;1.20;;
71148;SDS011;59072;42.144;25.200;2024-03-29T11:48:32;3.30;;;1.10;;
71148;SDS011;59072;42.144;25.200;2024-03-29T11:50:59;5.13;;;1.17;;
71148;SDS011;59072;42.144;25.200;2024-03-29T11:53:25;4.78;;;1.15;;
71148;SDS011;59072;42.144;25.200;2024-03-29T11:55:52;4.47;;;1.27;;
71148;SDS011;59072;42.144;25.200;2024-03-29T11:58:19;4.07;;;0.80;;
71148;SDS011;59072;42.144;25.200;2024-03-29T12:00:49;2.97;;;0.90;;
71148;SDS011;59072;42.144;25.200;2024-03-29T12:03:16;3.58;;;0.90;;
71148;SDS011;59072;42.144;25.200;2024-03-29T12:05:42;4.40;;;1.00;;
71148;SDS011;59072;42.144;25.200;2024-03-29T12:08:12;2.90;;;0.88;;
71148;SDS011;59072;42.144;25.200;2024-03-29T12:10:38;2.83;;;1.02;;
71148;SDS011;59072;42.144;25.200;2024-03-29T12:13:07;4.20;;;1.00;;
71148;SDS011;59072;42.144;25.200;2024-03-29T12:15:33;3.20;;;0.70;;
71148;SDS011;59072;42.144;25.200;2024-03-29T12:18:00;3.03;;;0.77;;
71148;SDS011;59072;42.144;25.200;2024-03-29T12:20:31;3.67;;;0.95;;
71148;SDS011;59072;42.144;25.200;2024-03-29T12:23:04;6.68;;;1.35;;
71148;SDS011;59072;42.144;25.200;2024-03-29T12:25:32;3.05;;;1.00;;
71148;SDS011;59072;42.144;25.200;2024-03-29T12:27:58;5.20;;;0.98;;
71148;SDS011;59072;42.144;25.200;2024-03-29T12:30:24;3.63;;;1.58;;
71148;SDS011;59072;42.144;25.200;2024-03-29T12:33:03;2.60;;;0.80;;
71148;SDS011;59072;42.144;25.200;2024-03-29T12:35:33;4.78;;;1.10;;
71148;SDS011;59072;42.144;25.200;2024-03-29T12:37:59;5.10;;;1.00;;
71148;SDS011;59072;42.144;25.200;2024-03-29T12:40:26;3.53;;;0.70;;
71148;SDS011;59072;42.144;25.200;2024-03-29T12:42:54;2.05;;;0.80;;
71148;SDS011;59072;42.144;25.200;2024-03-29T12:45:20;3.50;;;1.10;;
71148;SDS011;59072;42.144;25.200;2024-03-29T12:47:47;2.57;;;1.27;;
71148;SDS011;59072;42.144;25.200;2024-03-29T12:50:23;2.53;;;0.75;;
71148;SDS011;59072;42.144;25.200;2024-03-29T12:53:00;3.28;;;0.90;;
71148;SDS011;59072;42.144;25.200;2024-03-29T12:55:27;2.03;;;0.75;;
71148;SDS011;59072;42.144;25.200;2024-03-29T12:57:56;5.15;;;1.05;;
71148;SDS011;59072;42.144;25.200;2024-03-29T13:00:25;3.13;;;0.88;;
71148;SDS011;59072;42.144;25.200;2024-03-29T13:02:50;3.50;;;0.88;;
71148;SDS011;59072;42.144;25.200;2024-03-29T13:05:16;2.75;;;0.80;;
71148;SDS011;59072;42.144;25.200;2024-03-29T13:07:42;5.47;;;1.20;;
71148;SDS011;59072;42.144;25.200;2024-03-29T13:10:07;3.05;;;1.20;;
71148;SDS011;59072;42.144;25.200;2024-03-29T13:15:17;3.50;;;1.10;;
71148;SDS011;59072;42.144;25.200;2024-03-29T13:17:44;8.18;;;1.35;;
71148;SDS011;59072;42.144;25.200;2024-03-29T13:20:11;4.13;;;0.90;;
71148;SDS011;59072;42.144;25.200;2024-03-29T13:22:37;4.32;;;1.13;;
71148;SDS011;59072;42.144;25.200;2024-03-29T13:25:03;4.55;;;1.20;;
71148;SDS011;59072;42.144;25.200;2024-03-29T13:27:30;6.85;;;1.10;;
71148;SDS011;59072;42.144;25.200;2024-03-29T13:29:56;3.33;;;1.27;;
71148;SDS011;59072;42.144;25.200;2024-03-29T13:32:21;5.95;;;1.08;;
71148;SDS011;59072;42.144;25.200;2024-03-29T13:34:46;6.38;;;1.20;;
71148;SDS011;59072;42.144;25.200;2024-03-29T13:37:12;27.23;;;3.10;;
71148;SDS011;59072;42.144;25.200;2024-03-29T13:39:37;4.20;;;0.95;;
71148;SDS011;59072;42.144;25.200;2024-03-29T13:42:03;4.90;;;1.33;;
71148;SDS011;59072;42.144;25.200;2024-03-29T13:44:29;3.22;;;1.10;;
71148;SDS011;59072;42.144;25.200;2024-03-29T13:46:55;4.50;;;1.27;;
71148;SDS011;59072;42.144;25.200;2024-03-29T13:49:20;2.90;;;0.90;;
71148;SDS011;59072;42.144;25.200;2024-03-29T13:51:46;3.88;;;1.00;;
71148;SDS011;59072;42.144;25.200;2024-03-29T13:54:12;2.88;;;0.93;;
71148;SDS011;59072;42.144;25.200;2024-03-29T13:56:38;3.80;;;1.60;;
71148;SDS011;59072;42.144;25.200;2024-03-29T13:59:03;2.67;;;1.27;;
71148;SDS011;59072;42.144;25.200;2024-03-29T14:01:29;6.97;;;1.40;;
71148;SDS011;59072;42.144;25.200;2024-03-29T14:03:54;3.42;;;1.23;;
71148;SDS011;59072;42.144;25.200;2024-03-29T14:06:20;4.80;;;1.10;;
71148;SDS011;59072;42.144;25.200;2024-03-29T14:08:46;5.23;;;1.23;;
71148;SDS011;59072;42.144;25.200;2024-03-29T14:11:11;8.23;;;1.30;;
71148;SDS011;59072;42.144;25.200;2024-03-29T14:13:39;6.90;;;1.58;;
71148;SDS011;59072;42.144;25.200;2024-03-29T14:16:04;4.28;;;1.20;;
71148;SDS011;59072;42.144;25.200;2024-03-29T14:18:30;5.97;;;1.48;;
71148;SDS011;59072;42.144;25.200;2024-03-29T14:20:56;7.57;;;2.33;;
71148;SDS011;59072;42.144;25.200;2024-03-29T14:23:22;4.38;;;1.52;;
71148;SDS011;59072;42.144;25.200;2024-03-29T14:25:50;3.03;;;1.25;;
71148;SDS011;59072;42.144;25.200;2024-03-29T14:28:16;5.10;;;1.30;;
71148;SDS011;59072;42.144;25.200;2024-03-29T14:30:41;5.20;;;1.45;;
71148;SDS011;59072;42.144;25.200;2024-03-29T14:33:06;7.43;;;1.63;;
71148;SDS011;59072;42.144;25.200;2024-03-29T14:35:33;3.78;;;1.52;;
71148;SDS011;59072;42.144;25.200;2024-03-29T14:40:25;4.07;;;1.90;;
71148;SDS011;59072;42.144;25.200;2024-03-29T14:42:53;3.42;;;1.48;;